createdAt,value
2019-02-20T00:02:00.190Z,4.10
2019-02-20T00:07:03.629Z,6.70
2019-02-20T00:12:07.062Z,3.87
2019-02-20T00:17:10.841Z,3.00
2019-02-20T00:22:14.277Z,3.30
2019-02-20T00:27:17.679Z,3.57
2019-02-20T00:32:21.101Z,5.30
2019-02-20T00:37:24.589Z,3.60
2019-02-20T00:42:27.985Z,3.20
2019-02-20T00:47:49.059Z,2.80
2019-02-20T00:52:54.105Z,4.03
2019-02-20T00:57:57.546Z,4.63
2019-02-20T01:03:00.981Z,4.07
2019-02-20T01:08:04.399Z,4.63
2019-02-20T01:13:07.869Z,4.10
2019-02-20T01:18:11.300Z,3.97
2019-02-20T01:23:14.697Z,4.23
2019-02-20T01:28:18.118Z,4.50
2019-02-20T01:33:21.559Z,4.13
2019-02-20T01:38:24.951Z,4.23
2019-02-20T01:43:28.360Z,4.67
2019-02-20T01:48:31.782Z,3.97
2019-02-20T01:53:35.202Z,5.07
2019-02-20T01:58:38.618Z,5.60
2019-02-20T02:03:42.055Z,5.23
2019-02-20T02:08:45.480Z,5.13
2019-02-20T02:13:48.929Z,4.77
2019-02-20T02:18:52.345Z,5.63
2019-02-20T02:23:55.782Z,5.50
2019-02-20T02:28:59.213Z,6.33
2019-02-20T02:34:02.682Z,5.90
2019-02-20T02:39:06.651Z,6.33
2019-02-20T02:44:10.072Z,6.30
2019-02-20T02:49:13.490Z,6.60
2019-02-20T02:54:16.902Z,9.43
2019-02-20T02:59:20.323Z,9.93
2019-02-20T03:04:23.773Z,11.50
2019-02-20T03:09:27.198Z,10.93
2019-02-20T03:14:30.624Z,11.33
2019-02-20T03:19:34.034Z,9.67
2019-02-20T03:24:37.454Z,10.93
2019-02-20T03:29:40.889Z,12.50
2019-02-20T03:34:44.317Z,10.73
2019-02-20T03:39:47.747Z,12.83
2019-02-20T03:44:51.175Z,12.17
2019-02-20T03:49:54.585Z,14.00
2019-02-20T03:54:58.093Z,13.43
2019-02-20T04:00:01.603Z,12.20
2019-02-20T04:05:06.084Z,12.30
2019-02-20T04:10:09.646Z,13.37
2019-02-20T04:15:13.142Z,10.97
2019-02-20T04:20:16.569Z,13.57
2019-02-20T04:25:19.980Z,12.07
2019-02-20T04:30:23.926Z,12.20
2019-02-20T04:35:27.453Z,12.57
2019-02-20T04:40:30.909Z,12.00
2019-02-20T04:45:34.336Z,12.77
2019-02-20T04:50:37.767Z,12.43
2019-02-20T04:55:41.201Z,12.57
2019-02-20T05:00:44.662Z,11.70
2019-02-20T05:15:53.501Z,11.67
2019-02-20T05:20:56.918Z,13.17
2019-02-20T05:26:00.396Z,12.57
2019-02-20T05:31:03.882Z,11.23
2019-02-20T05:36:07.252Z,9.80
2019-02-20T05:41:10.701Z,12.30
2019-02-20T05:46:14.138Z,12.03
2019-02-20T05:51:17.552Z,11.83
2019-02-20T05:56:20.992Z,12.20
2019-02-20T06:01:24.448Z,10.37
2019-02-20T06:06:27.888Z,11.63
2019-02-20T06:11:31.325Z,11.57
2019-02-20T06:16:34.753Z,11.47
2019-02-20T06:21:38.328Z,11.60
2019-02-20T06:26:41.801Z,13.23
2019-02-20T06:31:45.201Z,12.50
2019-02-20T06:36:48.667Z,19.20
2019-02-20T06:41:52.164Z,17.20
2019-02-20T06:46:55.618Z,12.57
2019-02-20T06:51:59.113Z,22.23
2019-02-20T06:57:02.562Z,15.67
2019-02-20T07:02:06.421Z,13.43
2019-02-20T07:07:12.936Z,15.10
2019-02-20T07:12:34.447Z,15.70
2019-02-20T07:17:59.958Z,13.03
2019-02-20T07:23:39.203Z,13.90
2019-02-20T07:29:02.600Z,14.97
2019-02-20T07:34:06.002Z,15.60
2019-02-20T07:39:09.428Z,12.10
2019-02-20T07:44:12.868Z,12.10
2019-02-20T08:19:33.769Z,12.93
2019-02-20T08:54:53.121Z,9.20
2019-02-20T08:59:56.835Z,8.00
2019-02-20T09:05:00.370Z,9.87
2019-02-20T09:10:05.413Z,9.50
2019-02-20T09:15:11.299Z,8.27
2019-02-20T09:20:14.722Z,7.60
2019-02-20T09:25:20.151Z,8.07
2019-02-20T09:30:28.534Z,8.77
2019-02-20T09:45:41.709Z,7.63
2019-02-20T10:41:08.003Z,7.97
2019-02-20T10:46:11.421Z,6.27
2019-02-20T10:51:14.847Z,7.10
2019-02-20T10:56:18.304Z,7.53
2019-02-20T11:01:21.719Z,5.70
2019-02-20T11:06:25.197Z,5.63
2019-02-20T11:26:43.504Z,6.03
2019-02-20T11:31:41.667Z,5.70
2019-02-20T11:36:45.122Z,6.33
2019-02-20T11:41:48.547Z,6.77
2019-02-20T11:46:51.974Z,6.63
2019-02-20T11:51:55.378Z,6.80
2019-02-20T11:56:58.794Z,7.17
2019-02-20T12:02:02.208Z,6.30
2019-02-20T12:07:05.733Z,7.83
2019-02-20T12:12:09.541Z,8.30
2019-02-20T12:17:12.963Z,8.47
2019-02-20T12:22:16.426Z,8.87
2019-02-20T12:27:19.841Z,8.33
2019-02-20T12:32:23.337Z,9.67
2019-02-20T12:37:26.773Z,8.23
2019-02-20T12:42:30.206Z,9.77
2019-02-20T12:47:33.629Z,9.37
2019-02-20T12:52:37.064Z,11.43
2019-02-20T12:57:40.496Z,12.70
2019-02-20T13:02:43.913Z,11.17
2019-02-20T13:07:47.353Z,12.97
2019-02-20T13:12:50.800Z,13.67
2019-02-20T13:17:54.243Z,10.77
2019-02-20T13:22:57.732Z,14.10
2019-02-20T13:28:01.165Z,12.33
2019-02-20T13:33:04.681Z,11.37
2019-02-20T13:38:08.138Z,12.90
2019-02-20T13:43:11.533Z,12.83
2019-02-20T13:48:14.957Z,10.87
2019-02-20T13:53:18.457Z,10.30
2019-02-20T13:58:21.976Z,10.00
2019-02-20T14:03:25.403Z,11.17
2019-02-20T14:08:28.827Z,12.03
2019-02-20T14:13:32.245Z,11.83
2019-02-20T14:18:35.695Z,12.47
2019-02-20T14:23:39.158Z,15.00
2019-02-20T14:28:42.860Z,14.57
2019-02-20T14:33:46.288Z,14.67
2019-02-20T14:38:49.719Z,14.93
2019-02-20T14:43:53.143Z,15.60
2019-02-20T14:48:56.577Z,16.37
2019-02-20T14:54:00.282Z,16.37
2019-02-20T14:59:03.729Z,15.83
2019-02-20T15:04:07.161Z,17.03
2019-02-20T15:09:10.651Z,17.40
2019-02-20T15:14:16.079Z,18.60
2019-02-20T15:19:19.229Z,16.30
2019-02-20T15:24:22.680Z,16.60
2019-02-20T15:29:26.106Z,18.07
2019-02-20T15:34:29.539Z,19.03
2019-02-20T15:39:32.958Z,18.83
2019-02-20T15:44:36.378Z,19.87
2019-02-20T15:49:39.805Z,18.80
2019-02-20T15:54:43.230Z,21.57
2019-02-20T15:59:46.834Z,19.80
2019-02-20T16:04:50.286Z,20.07
2019-02-20T16:09:53.691Z,20.00
2019-02-20T16:14:57.407Z,20.40
2019-02-20T16:20:00.845Z,21.20
2019-02-20T16:25:06.712Z,18.67
2019-02-20T16:30:15.069Z,19.50
2019-02-20T16:35:18.489Z,20.27
2019-02-20T16:40:21.944Z,20.43
2019-02-20T16:45:26.118Z,18.87
2019-02-20T16:50:29.915Z,18.97
2019-02-20T16:55:33.364Z,19.73
2019-02-20T17:00:36.849Z,20.17
2019-02-20T17:05:40.364Z,19.43
2019-02-20T17:10:43.776Z,18.60
2019-02-20T17:15:47.472Z,20.47
2019-02-20T21:21:16.304Z,17.25
2019-02-20T21:31:53.826Z,15.80
2019-02-20T22:03:02.010Z,15.07
2019-02-20T22:08:23.640Z,14.90
2019-02-20T22:13:57.776Z,14.97
2019-02-20T22:19:33.114Z,30.83
2019-02-20T22:25:02.251Z,15.17
2019-02-20T22:30:38.776Z,15.40
2019-02-20T22:35:56.885Z,13.73
2019-02-20T22:41:20.013Z,14.80
